Time;durP1;ratioP1;P1;durP2;ratioP2;P2;SDS_P1;SDS_P2;PMS_P1;PMS_P2;Temp;Humidity;BMP_temperature;BMP_pressure;BME280_temperature;BME280_humidity;BME280_pressure;Samples;Min_cycle;Max_cycle;Signal;HPM_P1;HPM_P2
2023/08/03 00:01:58;;;;;;;8.48;2.65;;;17.20;99.90;;;;;;5149184;27;20194;-63
2023/08/03 00:04:24;;;;;;;8.45;2.90;;;17.20;99.90;;;;;;5149601;27;20215;-62
2023/08/03 00:06:50;;;;;;;7.25;2.70;;;17.20;99.90;;;;;;5152772;27;20214;-61
2023/08/03 00:09:16;;;;;;;8.38;2.70;;;17.20;99.90;;;;;;5154146;27;20172;-60
2023/08/03 00:11:42;;;;;;;7.35;2.20;;;17.20;99.90;;;;;;5124242;27;20197;-60
2023/08/03 00:14:08;;;;;;;6.90;2.40;;;17.30;99.90;;;;;;5153697;27;20188;-62
2023/08/03 00:16:34;;;;;;;6.78;2.60;;;17.20;99.90;;;;;;5154410;27;20712;-62
2023/08/03 00:19:00;;;;;;;5.75;2.30;;;17.20;99.90;;;;;;5151741;27;20187;-61
2023/08/03 00:21:26;;;;;;;6.82;2.40;;;17.20;99.90;;;;;;5146197;27;20184;-59
2023/08/03 00:23:51;;;;;;;7.63;2.20;;;17.20;99.90;;;;;;5130044;27;20192;-61
2023/08/03 00:26:17;;;;;;;6.18;2.25;;;17.30;99.90;;;;;;5128415;27;20202;-61
2023/08/03 00:28:43;;;;;;;7.47;2.30;;;17.20;99.90;;;;;;5142268;27;20666;-61
2023/08/03 00:31:09;;;;;;;8.35;2.60;;;17.20;99.90;;;;;;5134997;27;20184;-61
2023/08/03 00:33:35;;;;;;;5.88;2.10;;;17.30;99.90;;;;;;5120364;27;20277;-61
2023/08/03 00:36:03;;;;;;;3.88;2.13;;;17.20;99.90;;;;;;5112213;27;20282;-60
2023/08/03 00:38:28;;;;;;;6.75;2.38;;;17.30;99.90;;;;;;5136720;27;20683;-61
2023/08/03 00:40:54;;;;;;;4.95;2.25;;;17.30;99.90;;;;;;5154066;27;20200;-61
2023/08/03 00:43:21;;;;;;;5.68;2.17;;;17.30;99.90;;;;;;5134163;27;20881;-61
2023/08/03 00:45:46;;;;;;;7.07;2.20;;;17.30;99.90;;;;;;5133442;27;20180;-58
2023/08/03 00:48:13;;;;;;;5.93;2.00;;;17.30;99.90;;;;;;5135032;27;20206;-61
2023/08/03 00:50:39;;;;;;;10.20;1.83;;;17.30;99.90;;;;;;5147030;27;20184;-61
2023/08/03 00:53:05;;;;;;;4.75;1.80;;;17.30;99.90;;;;;;5149127;27;20348;-61
2023/08/03 00:55:31;;;;;;;3.72;1.67;;;17.30;99.90;;;;;;5152166;27;20188;-60
2023/08/03 00:57:58;;;;;;;4.63;1.80;;;17.40;99.90;;;;;;5141999;27;20232;-61
2023/08/03 01:00:24;;;;;;;4.18;2.00;;;17.40;99.90;;;;;;5117751;27;20229;-61
2023/08/03 01:02:51;;;;;;;3.45;1.60;;;17.40;99.90;;;;;;5140471;27;20301;-61
2023/08/03 01:05:17;;;;;;;5.40;2.20;;;17.40;99.90;;;;;;5125925;27;20255;-62
2023/08/03 01:07:44;;;;;;;3.38;1.90;;;17.40;99.90;;;;;;5129189;27;20195;-61
2023/08/03 01:10:10;;;;;;;7.10;2.20;;;17.40;99.90;;;;;;5139238;27;20195;-61
2023/08/03 01:12:36;;;;;;;5.07;2.20;;;17.40;99.90;;;;;;5116278;27;20334;-61
2023/08/03 01:15:02;;;;;;;4.93;1.92;;;17.40;99.90;;;;;;5148539;27;20199;-60
2023/08/03 01:17:31;;;;;;;4.00;2.03;;;17.30;99.90;;;;;;5135736;27;20179;-61
2023/08/03 01:19:57;;;;;;;7.07;2.10;;;17.30;99.90;;;;;;5151091;27;20224;-61
2023/08/03 01:22:24;;;;;;;4.28;1.92;;;17.30;99.90;;;;;;5133973;27;20183;-61
2023/08/03 01:24:50;;;;;;;3.33;1.90;;;17.30;99.90;;;;;;5148135;27;20192;-62
2023/08/03 01:27:16;;;;;;;3.47;1.77;;;17.30;99.90;;;;;;5150421;27;20188;-62
2023/08/03 01:29:42;;;;;;;5.43;2.00;;;17.30;99.90;;;;;;5131656;27;20207;-62
2023/08/03 01:32:08;;;;;;;3.65;1.92;;;17.30;99.90;;;;;;5126483;27;20668;-61
2023/08/03 01:34:34;;;;;;;4.25;2.10;;;17.30;99.90;;;;;;5141876;27;20194;-63
2023/08/03 01:37:00;;;;;;;4.32;2.00;;;17.30;99.90;;;;;;5147137;27;20672;-61
2023/08/03 01:39:26;;;;;;;8.15;2.60;;;17.30;99.90;;;;;;5152411;27;20183;-61
2023/08/03 01:41:52;;;;;;;5.18;2.25;;;17.30;99.90;;;;;;5135115;27;20667;-61
2023/08/03 01:44:28;;;;;;;8.40;2.33;;;17.30;99.90;;;;;;5131477;27;20192;-60
2023/08/03 01:46:56;;;;;;;5.95;2.10;;;17.30;99.90;;;;;;5147611;27;20183;-61
2023/08/03 01:49:23;;;;;;;5.97;2.67;;;17.30;99.90;;;;;;5131483;27;20271;-62
2023/08/03 01:51:50;;;;;;;3.63;2.10;;;17.30;99.90;;;;;;5135021;27;20188;-61
2023/08/03 01:54:16;;;;;;;9.18;2.80;;;17.30;99.90;;;;;;5149920;27;20224;-60
2023/08/03 01:56:42;;;;;;;5.80;2.50;;;17.30;99.90;;;;;;5147449;27;20188;-60
2023/08/03 01:59:09;;;;;;;4.13;2.10;;;17.30;99.90;;;;;;5129280;27;20191;-60
2023/08/03 02:01:34;;;;;;;6.00;2.45;;;17.30;99.90;;;;;;5123170;27;20187;-60
2023/08/03 02:04:00;;;;;;;4.53;2.05;;;17.30;99.90;;;;;;5149703;27;20183;-62
2023/08/03 02:06:26;;;;;;;5.70;2.22;;;17.30;99.90;;;;;;5130155;27;20192;-60
2023/08/03 02:08:52;;;;;;;8.15;2.63;;;17.30;99.90;;;;;;5129952;27;20560;-60
2023/08/03 02:11:19;;;;;;;9.23;2.25;;;17.30;99.90;;;;;;5108720;27;20199;-60
2023/08/03 02:13:44;;;;;;;4.88;1.80;;;17.20;99.90;;;;;;5130226;27;20244;-60
2023/08/03 02:16:11;;;;;;;5.53;2.08;;;17.20;99.90;;;;;;5138793;27;20179;-60
2023/08/03 02:18:38;;;;;;;3.17;1.90;;;17.30;99.90;;;;;;5122758;27;20287;-60
2023/08/03 02:21:05;;;;;;;5.43;2.10;;;17.30;99.90;;;;;;5128045;27;20644;-60
2023/08/03 02:23:32;;;;;;;7.40;2.20;;;17.30;99.90;;;;;;5134868;27;20183;-60
2023/08/03 02:25:58;;;;;;;3.17;2.00;;;17.30;99.90;;;;;;5146774;27;20221;-61
2023/08/03 02:28:24;;;;;;;4.47;1.95;;;17.30;99.90;;;;;;5136091;27;20226;-61
2023/08/03 02:30:50;;;;;;;5.43;1.83;;;17.30;99.90;;;;;;5131357;27;20184;-61
2023/08/03 02:33:17;;;;;;;3.85;2.08;;;17.30;99.90;;;;;;5136476;27;20211;-61
2023/08/03 02:35:45;;;;;;;2.72;1.80;;;17.30;99.90;;;;;;5127716;27;20188;-62
2023/08/03 02:38:11;;;;;;;3.35;1.75;;;17.40;99.90;;;;;;5137633;27;20225;-61
2023/08/03 02:40:37;;;;;;;3.70;2.13;;;17.40;99.90;;;;;;5148766;27;20194;-61
2023/08/03 02:43:03;;;;;;;3.50;1.95;;;17.30;99.90;;;;;;5142674;27;20703;-61
2023/08/03 02:45:32;;;;;;;6.72;2.10;;;17.40;99.90;;;;;;5123506;27;20269;-61
2023/08/03 02:48:04;;;;;;;2.60;1.80;;;17.40;99.90;;;;;;5153507;27;20192;-61
2023/08/03 02:50:30;;;;;;;3.38;1.60;;;17.40;99.90;;;;;;5135723;27;20672;-61
2023/08/03 02:52:59;;;;;;;4.15;2.00;;;17.40;99.90;;;;;;5125013;27;20239;-61
2023/08/03 02:55:26;;;;;;;3.08;1.58;;;17.40;99.90;;;;;;5092581;27;20232;-60
2023/08/03 02:57:54;;;;;;;5.78;1.90;;;17.40;99.90;;;;;;5136620;27;20195;-60
2023/08/03 03:00:21;;;;;;;5.40;1.92;;;17.40;99.90;;;;;;5119890;27;20203;-61
2023/08/03 03:02:47;;;;;;;3.75;1.80;;;17.40;99.90;;;;;;5129688;27;20656;-61
2023/08/03 03:05:17;;;;;;;2.88;1.70;;;17.40;99.90;;;;;;5148162;27;20180;-63
2023/08/03 03:07:46;;;;;;;5.25;2.00;;;17.40;99.90;;;;;;5135245;27;20184;-61
2023/08/03 03:10:13;;;;;;;3.28;2.20;;;17.40;99.90;;;;;;5155676;27;20184;-61
2023/08/03 03:12:40;;;;;;;4.50;2.47;;;17.40;99.90;;;;;;5137731;27;20260;-61
2023/08/03 03:15:07;;;;;;;4.30;2.47;;;17.40;99.90;;;;;;5125789;27;20640;-61
2023/08/03 03:17:34;;;;;;;3.33;2.40;;;17.30;99.90;;;;;;5136060;27;20188;-61
2023/08/03 03:20:01;;;;;;;3.85;2.60;;;17.30;99.90;;;;;;5117818;27;20275;-61
2023/08/03 03:22:29;;;;;;;5.10;2.95;;;17.30;99.90;;;;;;5136884;27;20183;-61
2023/08/03 03:24:55;;;;;;;4.35;2.60;;;17.30;99.90;;;;;;5135260;27;20236;-62
2023/08/03 03:27:21;;;;;;;3.55;2.67;;;17.30;99.90;;;;;;5153881;27;20188;-61
2023/08/03 03:29:52;;;;;;;4.22;2.83;;;17.30;99.90;;;;;;5145965;27;20184;-62
2023/08/03 03:32:19;;;;;;;4.22;3.00;;;17.30;99.90;;;;;;5137349;27;20218;-61
2023/08/03 03:34:45;;;;;;;5.00;3.38;;;17.30;99.90;;;;;;5150701;27;20199;-60
2023/08/03 03:37:14;;;;;;;5.07;3.28;;;17.30;99.90;;;;;;5135961;27;20183;-61
2023/08/03 03:39:40;;;;;;;5.18;3.47;;;17.30;99.90;;;;;;5134211;27;20279;-59
2023/08/03 03:42:13;;;;;;;5.40;3.22;;;17.30;99.90;;;;;;5136998;27;20220;-61
2023/08/03 03:44:38;;;;;;;5.15;3.40;;;17.30;99.90;;;;;;5148947;27;20210;-59
2023/08/03 03:47:05;;;;;;;5.70;3.45;;;17.30;99.90;;;;;;5154954;27;20192;-61
2023/08/03 03:49:38;;;;;;;6.85;3.78;;;17.30;99.90;;;;;;5123563;27;20207;-62
2023/08/03 03:52:04;;;;;;;7.03;3.83;;;17.20;99.90;;;;;;5153134;27;20561;-60
2023/08/03 03:54:33;;;;;;;5.93;4.03;;;17.20;99.90;;;;;;5128363;27;20245;-63
2023/08/03 03:57:02;;;;;;;7.25;4.30;;;17.20;99.90;;;;;;5127059;27;20241;-61
2023/08/03 03:59:31;;;;;;;7.05;4.05;;;17.20;99.90;;;;;;5119795;27;20180;-60
2023/08/03 04:01:57;;;;;;;6.45;4.63;;;17.20;99.90;;;;;;5123389;27;20229;-61
2023/08/03 04:04:24;;;;;;;8.23;4.38;;;17.20;99.90;;;;;;5131942;27;20191;-61
2023/08/03 04:06:50;;;;;;;8.63;4.82;;;17.20;99.90;;;;;;5129515;27;20544;-60
2023/08/03 04:09:16;;;;;;;4.97;4.22;;;17.20;99.90;;;;;;5129011;27;20229;-62
2023/08/03 04:11:42;;;;;;;7.65;4.50;;;17.20;99.90;;;;;;5130935;27;20192;-63
2023/08/03 04:14:08;;;;;;;7.22;4.80;;;17.20;99.90;;;;;;5134047;27;20184;-60
2023/08/03 04:16:34;;;;;;;7.70;4.97;;;17.20;99.90;;;;;;5131272;27;20273;-60
2023/08/03 04:19:00;;;;;;;6.85;5.28;;;17.30;99.90;;;;;;5131509;27;20663;-61
2023/08/03 04:21:26;;;;;;;8.55;5.15;;;17.30;99.90;;;;;;5127800;27;20313;-61
2023/08/03 04:23:54;;;;;;;6.43;5.28;;;17.30;99.90;;;;;;5123186;27;20738;-60
2023/08/03 04:26:20;;;;;;;7.60;5.90;;;17.30;99.90;;;;;;5130556;27;20640;-61
2023/08/03 04:28:46;;;;;;;7.82;6.20;;;17.30;99.90;;;;;;5115658;27;20185;-61
2023/08/03 04:31:12;;;;;;;8.20;6.20;;;17.30;99.90;;;;;;5124608;27;20679;-60
2023/08/03 04:33:43;;;;;;;10.25;6.25;;;17.30;99.90;;;;;;5109668;27;20286;-61
2023/08/03 04:36:09;;;;;;;14.63;6.80;;;17.40;99.90;;;;;;5128211;27;20263;-61
2023/08/03 04:38:38;;;;;;;9.75;7.10;;;17.40;99.90;;;;;;5121348;27;20192;-61
2023/08/03 04:41:05;;;;;;;11.43;6.95;;;17.40;99.90;;;;;;5131426;27;20196;-61
2023/08/03 04:43:35;;;;;;;9.73;6.95;;;17.40;99.90;;;;;;5111343;27;20593;-62
2023/08/03 04:46:01;;;;;;;13.80;6.35;;;17.40;99.90;;;;;;5131521;27;20177;-61
2023/08/03 04:48:27;;;;;;;12.13;7.05;;;17.40;99.90;;;;;;5122543;27;20181;-61
2023/08/03 04:50:55;;;;;;;10.95;6.72;;;17.50;99.90;;;;;;5112858;27;20181;-61
2023/08/03 04:53:23;;;;;;;11.25;6.60;;;17.50;99.90;;;;;;5127250;27;20307;-62
2023/08/03 04:55:50;;;;;;;12.00;7.00;;;17.50;99.90;;;;;;5093327;28;20236;-60
2023/08/03 04:58:16;;;;;;;9.27;6.30;;;17.50;99.90;;;;;;5105194;28;20807;-61
2023/08/03 05:00:46;;;;;;;14.30;6.85;;;17.60;99.90;;;;;;5110174;28;20187;-61
2023/08/03 05:03:12;;;;;;;12.70;6.60;;;17.60;99.90;;;;;;5103593;28;20183;-61
2023/08/03 05:05:39;;;;;;;9.38;6.00;;;17.60;99.90;;;;;;5090734;28;20268;-61
2023/08/03 05:08:05;;;;;;;12.13;6.28;;;17.60;99.90;;;;;;5086065;28;20185;-61
2023/08/03 05:10:31;;;;;;;10.13;6.18;;;17.60;99.90;;;;;;5101769;28;20526;-61
2023/08/03 05:12:57;;;;;;;14.02;6.03;;;17.60;99.90;;;;;;5100053;28;20598;-61
2023/08/03 05:15:23;;;;;;;10.63;5.70;;;17.60;99.90;;;;;;5102013;28;20186;-62
2023/08/03 05:17:49;;;;;;;10.50;6.25;;;17.60;99.90;;;;;;5112384;27;20189;-61
2023/08/03 05:20:16;;;;;;;12.75;6.68;;;17.60;99.90;;;;;;5122961;27;20698;-62
2023/08/03 05:22:42;;;;;;;11.13;6.85;;;17.70;99.90;;;;;;5101685;28;20202;-61
2023/08/03 05:25:09;;;;;;;10.30;6.80;;;17.70;99.90;;;;;;5109555;27;20184;-62
2023/08/03 05:27:35;;;;;;;11.15;6.60;;;17.70;99.90;;;;;;5104487;28;20249;-60
2023/08/03 05:30:01;;;;;;;10.93;7.15;;;17.70;99.90;;;;;;5109996;28;20648;-61
2023/08/03 05:32:27;;;;;;;13.38;7.93;;;17.70;99.90;;;;;;5110435;28;20304;-60
2023/08/03 05:34:54;;;;;;;12.88;7.35;;;17.70;99.90;;;;;;5111675;28;20196;-59
2023/08/03 05:37:19;;;;;;;8.43;6.60;;;17.70;99.90;;;;;;5111375;28;20342;-59
2023/08/03 05:39:46;;;;;;;10.07;7.03;;;17.70;99.90;;;;;;5098235;28;20642;-61
2023/08/03 05:42:13;;;;;;;10.40;7.13;;;17.70;99.90;;;;;;5106137;28;20177;-59
2023/08/03 05:44:39;;;;;;;13.40;7.35;;;17.70;99.90;;;;;;5102307;28;20185;-64
2023/08/03 05:47:08;;;;;;;13.98;7.07;;;17.70;99.90;;;;;;5106198;28;20192;-61
2023/08/03 05:49:35;;;;;;;11.32;6.78;;;17.70;99.90;;;;;;5105239;28;20283;-61
2023/08/03 05:52:01;;;;;;;8.27;7.07;;;17.60;99.90;;;;;;5110602;28;20185;-61
2023/08/03 05:54:26;;;;;;;10.63;6.85;;;17.70;99.90;;;;;;5148563;27;20227;-62
2023/08/03 05:56:52;;;;;;;9.85;6.47;;;17.70;99.90;;;;;;5153178;27;20550;-64
2023/08/03 05:59:21;;;;;;;9.82;6.28;;;17.80;99.90;;;;;;5126053;27;20282;-61
2023/08/03 06:01:48;;;;;;;8.60;6.40;;;17.80;99.90;;;;;;5127465;27;20600;-62
2023/08/03 06:04:18;;;;;;;8.00;5.88;;;17.90;99.90;;;;;;5147914;27;20563;-62
2023/08/03 06:06:45;;;;;;;8.48;5.90;;;17.90;99.90;;;;;;5150502;27;20271;-61
2023/08/03 06:09:13;;;;;;;7.95;5.65;;;17.90;99.90;;;;;;5145139;27;20195;-61
2023/08/03 06:11:40;;;;;;;6.88;5.35;;;17.90;99.90;;;;;;5123842;28;20204;-61
2023/08/03 06:14:11;;;;;;;5.70;4.45;;;17.90;99.90;;;;;;5151499;27;20613;-61
2023/08/03 06:16:37;;;;;;;7.43;5.00;;;17.80;99.90;;;;;;5133182;27;20519;-60
2023/08/03 06:19:05;;;;;;;7.13;5.82;;;17.80;99.90;;;;;;5149117;27;20182;-61
2023/08/03 06:21:31;;;;;;;7.35;5.70;;;17.90;99.90;;;;;;5147608;27;20209;-61
2023/08/03 06:23:58;;;;;;;7.75;5.82;;;17.90;99.90;;;;;;5147873;27;20187;-61
2023/08/03 06:26:26;;;;;;;6.53;5.35;;;17.90;99.90;;;;;;5151102;27;20191;-61
2023/08/03 06:28:53;;;;;;;7.95;5.38;;;18.00;99.90;;;;;;5132214;27;20195;-61
2023/08/03 06:31:30;;;;;;;5.40;4.90;;;18.10;99.90;;;;;;5145654;27;20176;-61
2023/08/03 06:33:56;;;;;;;6.07;4.50;;;18.10;99.90;;;;;;5152571;27;20559;-61
2023/08/03 06:36:27;;;;;;;6.15;4.45;;;18.10;99.90;;;;;;5136191;27;20180;-61
2023/08/03 06:38:57;;;;;;;5.60;4.55;;;18.20;99.90;;;;;;5148630;27;20176;-61
2023/08/03 06:41:26;;;;;;;11.48;4.20;;;18.30;99.90;;;;;;5128649;27;20267;-60
2023/08/03 06:43:56;;;;;;;5.35;4.20;;;18.30;99.90;;;;;;5128650;27;20180;-62
2023/08/03 06:46:24;;;;;;;5.80;4.15;;;18.40;99.90;;;;;;5150808;27;20248;-62
2023/08/03 06:48:50;;;;;;;4.97;4.10;;;18.40;99.90;;;;;;5147570;27;20184;-62
2023/08/03 06:51:17;;;;;;;5.47;3.92;;;18.50;99.90;;;;;;5147285;27;20224;-61
2023/08/03 06:53:43;;;;;;;6.47;3.72;;;18.60;99.90;;;;;;5123353;27;20235;-62
2023/08/03 06:56:09;;;;;;;4.20;3.80;;;18.60;99.90;;;;;;5144962;27;20656;-61
2023/08/03 06:58:35;;;;;;;5.95;3.53;;;18.70;99.90;;;;;;5134311;27;20323;-59
2023/08/03 07:01:01;;;;;;;7.47;3.88;;;18.80;99.90;;;;;;5149841;27;20180;-61
2023/08/03 07:03:27;;;;;;;5.18;3.80;;;18.80;99.90;;;;;;5114498;27;20590;-63
2023/08/03 07:05:54;;;;;;;8.93;3.30;;;18.90;99.90;;;;;;5127747;27;20466;-62
2023/08/03 07:08:20;;;;;;;4.03;2.80;;;18.80;99.90;;;;;;5124933;27;20263;-61
2023/08/03 07:10:46;;;;;;;5.90;3.20;;;18.90;99.90;;;;;;5128919;27;20279;-62
2023/08/03 07:13:13;;;;;;;2.92;2.63;;;18.90;99.90;;;;;;5147202;27;20279;-61
2023/08/03 07:15:39;;;;;;;3.42;2.35;;;18.90;99.90;;;;;;5150135;27;20219;-61
2023/08/03 07:18:06;;;;;;;3.38;2.33;;;19.00;99.90;;;;;;5150582;27;20207;-62
2023/08/03 07:20:33;;;;;;;5.57;2.60;;;19.10;99.90;;;;;;5127645;27;20225;-63
2023/08/03 07:23:00;;;;;;;2.50;2.00;;;19.20;99.90;;;;;;5147109;27;20247;-61
2023/08/03 07:25:26;;;;;;;4.30;2.00;;;19.30;99.90;;;;;;5130302;27;20610;-62
2023/08/03 07:27:53;;;;;;;4.80;2.20;;;19.30;99.90;;;;;;5149349;27;20204;-62
2023/08/03 07:30:19;;;;;;;3.42;1.90;;;19.30;99.90;;;;;;5153932;27;20180;-60
2023/08/03 07:32:46;;;;;;;2.33;1.90;;;19.40;99.90;;;;;;5151183;27;20209;-61
2023/08/03 07:35:12;;;;;;;5.80;1.85;;;19.40;99.90;;;;;;5153457;27;20188;-62
2023/08/03 07:37:38;;;;;;;2.60;1.67;;;19.30;99.90;;;;;;5153472;27;20178;-62
2023/08/03 07:40:05;;;;;;;3.40;1.30;;;19.40;99.90;;;;;;5131181;27;20180;-61
2023/08/03 07:42:31;;;;;;;4.38;1.60;;;19.50;99.90;;;;;;5154933;27;20180;-61
2023/08/03 07:44:58;;;;;;;6.95;1.75;;;19.50;99.90;;;;;;5153927;27;20529;-61
2023/08/03 07:47:24;;;;;;;5.90;1.50;;;19.50;99.90;;;;;;5134591;27;20712;-62
2023/08/03 07:49:54;;;;;;;4.05;1.10;;;19.50;99.90;;;;;;5111614;27;20195;-62
2023/08/03 07:52:21;;;;;;;3.90;1.25;;;19.50;99.90;;;;;;5135023;27;20196;-60
2023/08/03 07:54:47;;;;;;;4.28;1.23;;;19.50;99.90;;;;;;5141361;27;20557;-62
2023/08/03 07:57:15;;;;;;;4.38;1.40;;;19.60;99.90;;;;;;5149749;27;20266;-61
2023/08/03 07:59:51;;;;;;;5.05;1.33;;;19.70;99.90;;;;;;5152472;27;20184;-61
2023/08/03 08:02:17;;;;;;;3.88;1.00;;;19.80;99.90;;;;;;5129984;27;20186;-59
2023/08/03 08:04:47;;;;;;;2.72;1.08;;;19.90;99.90;;;;;;5148950;27;20183;-63
2023/08/03 08:07:13;;;;;;;4.32;1.20;;;20.10;99.90;;;;;;5147791;27;20183;-64
2023/08/03 08:09:39;;;;;;;3.58;1.10;;;20.20;99.90;;;;;;5129116;27;20588;-60
2023/08/03 08:12:06;;;;;;;4.50;1.10;;;20.30;99.90;;;;;;5127828;27;20191;-59
2023/08/03 08:14:32;;;;;;;7.75;1.23;;;20.30;99.90;;;;;;5124405;27;20218;-60
2023/08/03 08:16:58;;;;;;;4.32;1.33;;;20.30;99.90;;;;;;5120698;27;20192;-62
2023/08/03 08:19:24;;;;;;;4.18;1.20;;;20.40;99.90;;;;;;5145928;27;20627;-59
2023/08/03 08:21:51;;;;;;;3.72;1.42;;;20.60;99.90;;;;;;5147151;27;20228;-59
2023/08/03 08:24:17;;;;;;;4.22;1.20;;;20.70;99.90;;;;;;5153443;27;20191;-60
2023/08/03 08:26:44;;;;;;;5.15;1.27;;;20.80;99.90;;;;;;5151607;27;20195;-60
2023/08/03 08:29:10;;;;;;;5.40;1.48;;;20.80;99.90;;;;;;5154386;27;20184;-60
2023/08/03 08:31:36;;;;;;;5.57;1.48;;;20.70;99.90;;;;;;5131016;27;20185;-60
2023/08/03 08:34:02;;;;;;;5.28;1.08;;;20.60;99.90;;;;;;5131820;27;20215;-61
2023/08/03 08:36:28;;;;;;;4.28;1.30;;;20.50;99.90;;;;;;5146568;27;20195;-59
2023/08/03 08:38:54;;;;;;;4.38;1.42;;;20.40;99.90;;;;;;5150018;27;20187;-60
2023/08/03 08:41:20;;;;;;;5.65;1.10;;;20.50;99.90;;;;;;5153908;27;20643;-59
2023/08/03 08:43:46;;;;;;;4.53;1.30;;;20.60;99.90;;;;;;5148204;27;20640;-59
2023/08/03 08:46:12;;;;;;;6.03;1.27;;;20.80;99.90;;;;;;5147298;27;20194;-60
2023/08/03 08:48:38;;;;;;;4.55;1.25;;;20.90;99.90;;;;;;5146618;27;20186;-60
2023/08/03 08:51:05;;;;;;;2.50;1.27;;;21.00;99.90;;;;;;5137925;27;20180;-59
2023/08/03 08:53:31;;;;;;;7.00;1.20;;;21.10;99.90;;;;;;5126698;27;20315;-60
2023/08/03 08:55:57;;;;;;;4.18;1.27;;;21.10;99.90;;;;;;5123051;27;20624;-62
2023/08/03 08:58:24;;;;;;;5.82;1.40;;;21.10;99.90;;;;;;5124596;27;20585;-62
2023/08/03 09:00:51;;;;;;;5.38;1.40;;;21.10;99.90;;;;;;5129308;27;20195;-61
2023/08/03 09:03:17;;;;;;;6.03;1.70;;;21.10;99.90;;;;;;5105891;27;20287;-62
2023/08/03 09:05:43;;;;;;;5.97;1.50;;;21.20;99.90;;;;;;5126973;27;20184;-61
2023/08/03 09:08:14;;;;;;;6.97;1.52;;;21.30;99.90;;;;;;5116523;27;20195;-62
2023/08/03 09:10:54;;;;;;;4.53;1.40;;;21.50;99.90;;;;;;5131248;27;20183;-62
2023/08/03 09:13:35;;;;;;;5.25;1.25;;;21.60;99.90;;;;;;5144202;27;20263;-61
2023/08/03 09:16:01;;;;;;;3.70;1.00;;;21.70;99.90;;;;;;5148210;27;20682;-61
2023/08/03 09:18:30;;;;;;;7.97;1.70;;;21.80;99.90;;;;;;5146625;27;20205;-60
2023/08/03 09:21:08;;;;;;;6.03;1.48;;;21.80;99.90;;;;;;5150503;27;20184;-62
2023/08/03 09:23:34;;;;;;;6.25;1.50;;;21.70;99.90;;;;;;5133217;27;20183;-60
2023/08/03 09:26:00;;;;;;;9.02;2.00;;;21.60;99.90;;;;;;5153920;27;20183;-61
2023/08/03 09:28:36;;;;;;;3.30;1.45;;;21.60;99.90;;;;;;5145858;27;20590;-61
2023/08/03 09:31:03;;;;;;;6.47;1.95;;;21.60;99.90;;;;;;5121360;27;20173;-61
2023/08/03 09:33:30;;;;;;;7.28;1.83;;;21.60;99.90;;;;;;5150520;27;20203;-61
2023/08/03 09:36:08;;;;;;;7.13;1.70;;;21.70;99.90;;;;;;5137611;27;20203;-61
2023/08/03 09:38:34;;;;;;;5.80;1.70;;;21.80;99.90;;;;;;5141361;27;20194;-58
2023/08/03 09:41:00;;;;;;;9.00;2.00;;;21.90;99.90;;;;;;5122133;27;20216;-61
2023/08/03 09:43:27;;;;;;;10.63;2.13;;;21.80;99.90;;;;;;5150421;27;20188;-60
2023/08/03 09:45:54;;;;;;;10.80;2.33;;;21.80;99.90;;;;;;5108993;27;20608;-62
2023/08/03 09:48:20;;;;;;;8.48;2.28;;;21.70;99.90;;;;;;5134449;27;20180;-61
2023/08/03 09:50:51;;;;;;;10.43;2.10;;;21.60;99.90;;;;;;5129267;27;20187;-60
2023/08/03 09:53:30;;;;;;;9.13;2.20;;;21.50;99.90;;;;;;5151910;27;20231;-60
2023/08/03 09:56:03;;;;;;;6.57;1.80;;;21.60;99.90;;;;;;5126252;27;20171;-60
2023/08/03 09:58:45;;;;;;;9.20;2.08;;;21.80;99.90;;;;;;5140572;27;20401;-60
2023/08/03 10:01:14;;;;;;;9.95;1.95;;;22.00;99.90;;;;;;5151221;27;20167;-61
2023/08/03 10:03:46;;;;;;;7.00;1.63;;;22.20;99.90;;;;;;5120468;27;20192;-62
2023/08/03 10:06:17;;;;;;;9.77;2.00;;;22.40;99.90;;;;;;5140564;27;20175;-61
2023/08/03 10:08:48;;;;;;;10.73;2.05;;;22.40;99.90;;;;;;5134624;27;20184;-59
2023/08/03 10:11:14;;;;;;;7.05;1.95;;;22.60;99.90;;;;;;5130532;27;20184;-61
2023/08/03 10:13:50;;;;;;;6.32;1.70;;;22.80;99.90;;;;;;5130640;27;20206;-62
2023/08/03 10:16:20;;;;;;;7.32;1.80;;;22.90;99.90;;;;;;5142311;27;20187;-61
2023/08/03 10:18:46;;;;;;;5.78;1.98;;;22.80;99.90;;;;;;5138216;27;20179;-61
2023/08/03 10:21:13;;;;;;;7.70;2.20;;;22.70;99.90;;;;;;5132738;27;20187;-61
2023/08/03 10:23:39;;;;;;;12.32;2.60;;;22.70;99.90;;;;;;5141943;27;20192;-62
2023/08/03 10:26:09;;;;;;;14.50;2.78;;;22.50;99.90;;;;;;5145442;27;20211;-61
2023/08/03 10:28:41;;;;;;;16.33;2.97;;;22.30;99.90;;;;;;5145704;27;20259;-65
2023/08/03 10:31:14;;;;;;;10.98;3.10;;;21.70;99.90;;;;;;5127151;27;20185;-66
2023/08/03 10:33:46;;;;;;;53.45;4.95;;;20.50;99.90;;;;;;5111966;27;20282;-68
2023/08/03 10:36:35;;;;;;;13.27;3.40;;;19.70;99.90;;;;;;5126547;27;20184;-69
2023/08/03 10:39:04;;;;;;;11.77;4.28;;;19.20;99.90;;;;;;5151090;27;20184;-68
2023/08/03 10:41:36;;;;;;;14.63;4.35;;;18.80;99.90;;;;;;5151675;27;20247;-71
2023/08/03 10:44:05;;;;;;;18.15;4.60;;;18.70;99.90;;;;;;5154514;27;20215;-70
2023/08/03 10:46:32;;;;;;;17.60;4.53;;;18.60;99.90;;;;;;5142998;27;20188;-67
2023/08/03 10:48:58;;;;;;;14.82;4.55;;;18.60;99.90;;;;;;5137520;27;20191;-67
2023/08/03 10:51:25;;;;;;;14.88;4.88;;;18.70;99.90;;;;;;5156536;27;20563;-67
2023/08/03 10:53:51;;;;;;;11.73;3.95;;;18.70;99.90;;;;;;5137539;27;20635;-68
2023/08/03 10:56:17;;;;;;;13.38;4.18;;;18.70;99.90;;;;;;5117910;27;20271;-68
2023/08/03 10:58:47;;;;;;;20.88;4.20;;;18.70;99.90;;;;;;5118497;27;20192;-66
2023/08/03 11:01:23;;;;;;;18.10;4.88;;;18.70;99.90;;;;;;5148280;27;20271;-66
2023/08/03 11:03:50;;;;;;;13.82;4.13;;;18.80;99.90;;;;;;5149175;27;20184;-66
2023/08/03 11:06:17;;;;;;;13.43;3.50;;;18.80;99.90;;;;;;5153055;27;20251;-68
2023/08/03 11:08:47;;;;;;;9.20;3.20;;;18.80;99.90;;;;;;5142169;27;20651;-68
2023/08/03 11:11:16;;;;;;;8.70;3.17;;;18.70;99.90;;;;;;5153585;27;20539;-67
2023/08/03 11:13:45;;;;;;;11.02;2.85;;;18.70;99.90;;;;;;5154428;27;20203;-69
2023/08/03 11:16:15;;;;;;;9.35;2.55;;;18.60;99.90;;;;;;5149734;27;20188;-70
2023/08/03 11:18:45;;;;;;;9.98;2.80;;;18.60;99.90;;;;;;5132989;27;20275;-67
2023/08/03 11:21:12;;;;;;;8.35;2.22;;;18.60;99.90;;;;;;5132003;27;20172;-66
2023/08/03 11:23:38;;;;;;;7.22;2.05;;;18.60;99.90;;;;;;5131029;27;20249;-67
2023/08/03 11:26:07;;;;;;;4.03;1.70;;;18.50;99.90;;;;;;5136064;27;20192;-67
2023/08/03 11:28:43;;;;;;;8.68;1.95;;;18.40;99.90;;;;;;5144658;27;20181;-65
2023/08/03 11:31:17;;;;;;;6.05;1.90;;;18.30;99.90;;;;;;5148047;27;20274;-65
2023/08/03 11:33:54;;;;;;;6.20;1.75;;;18.30;99.90;;;;;;5153167;27;20252;-65
2023/08/03 11:36:21;;;;;;;8.52;1.90;;;18.30;99.90;;;;;;5146415;27;20193;-65
2023/08/03 11:38:49;;;;;;;8.68;1.42;;;18.30;99.90;;;;;;5134198;27;20184;-63
2023/08/03 11:41:19;;;;;;;6.10;1.92;;;18.40;99.90;;;;;;5118450;27;20195;-64
2023/08/03 11:43:47;;;;;;;8.23;1.60;;;18.50;99.90;;;;;;5155015;27;20183;-65
2023/08/03 11:46:13;;;;;;;4.05;1.52;;;18.50;99.90;;;;;;5150222;27;20182;-65
2023/08/03 11:48:44;;;;;;;8.82;1.83;;;18.60;99.90;;;;;;5151191;27;20180;-65
2023/08/03 11:51:10;;;;;;;4.38;1.73;;;18.80;99.90;;;;;;5154608;27;20191;-64
2023/08/03 11:53:40;;;;;;;5.82;1.25;;;19.00;99.90;;;;;;5155523;27;20239;-64
2023/08/03 11:56:10;;;;;;;5.70;1.30;;;19.20;99.90;;;;;;5153406;27;20565;-64
2023/08/03 11:58:36;;;;;;;5.63;1.30;;;19.50;99.90;;;;;;5142044;27;20184;-63
2023/08/03 12:01:06;;;;;;;5.50;1.40;;;19.70;99.90;;;;;;5122298;27;20210;-61
2023/08/03 12:03:38;;;;;;;5.50;1.30;;;19.90;99.90;;;;;;5151518;27;20183;-64
2023/08/03 12:06:10;;;;;;;6.47;1.80;;;20.00;99.90;;;;;;5149643;27;20682;-62
2023/08/03 12:08:47;;;;;;;7.57;1.80;;;20.10;99.90;;;;;;5146835;27;20193;-63
2023/08/03 12:11:17;;;;;;;3.95;1.65;;;20.10;99.90;;;;;;5124237;27;20172;-63
2023/08/03 12:13:43;;;;;;;7.05;2.08;;;20.20;99.90;;;;;;5136938;27;20224;-65
2023/08/03 12:16:09;;;;;;;4.93;1.85;;;20.30;99.90;;;;;;5138082;27;20229;-62
2023/08/03 12:18:36;;;;;;;8.15;2.13;;;20.30;99.90;;;;;;5145984;27;20189;-62
2023/08/03 12:21:02;;;;;;;5.15;2.00;;;20.50;99.90;;;;;;5142264;27;20168;-64
2023/08/03 12:23:28;;;;;;;6.38;2.20;;;20.70;99.90;;;;;;5150620;27;20184;-62
2023/08/03 12:25:54;;;;;;;9.15;2.03;;;20.80;99.90;;;;;;5152044;27;20650;-63
2023/08/03 12:28:21;;;;;;;8.75;2.17;;;20.90;99.90;;;;;;5148345;27;20203;-63
2023/08/03 12:30:47;;;;;;;11.13;2.35;;;20.70;99.90;;;;;;5117035;27;20204;-62
2023/08/03 12:33:13;;;;;;;6.63;1.92;;;20.50;99.90;;;;;;5135602;27;20208;-62
2023/08/03 12:35:39;;;;;;;11.30;2.42;;;20.40;99.90;;;;;;5148149;27;20278;-62
2023/08/03 12:38:05;;;;;;;13.07;2.70;;;20.30;99.90;;;;;;5150702;27;20188;-62
2023/08/03 12:40:31;;;;;;;9.20;2.10;;;20.20;99.90;;;;;;5131562;27;20191;-62
2023/08/03 12:42:57;;;;;;;7.53;1.80;;;20.10;99.90;;;;;;5151650;27;20199;-62
2023/08/03 12:45:24;;;;;;;6.15;1.88;;;20.10;99.90;;;;;;5153204;27;20180;-60
2023/08/03 12:47:54;;;;;;;13.02;1.90;;;20.10;99.90;;;;;;5145527;27;20745;-61